Terminal Aerodrome Forecast
Issued by NWS Wilmington, NC

Home | Current Version | Previous Version | Text Only | Print | Product List | Glossary On
Versions: 1 2 3 4 5 6 7 8 9 10 11 12 13 14 15 16 17 18 19
811
FTUS42 KILM 300559 CCB
TAFILM
TAF COR
KILM 300559Z 3006/0106 14004KT P6SM SKC
     FM300800 08005KT 5SM BR OVC005
     FM301400 07007KT P6SM BKN012
     FM301600 10008KT P6SM BKN030
     FM010100 11006KT P6SM OVC012
     FM010300 09006KT P6SM OVC007=

USA.gov is the U.S. government's official web portal to all federal, state and local government web resources and services.